createdAt,value
2022-12-09T00:07:11.313Z,25.70
2022-12-09T00:09:38.215Z,32.60
2022-12-09T00:12:04.928Z,27.20
2022-12-09T00:14:31.419Z,24.00
2022-12-09T00:16:58.185Z,22.70
2022-12-09T00:19:25.000Z,23.90
2022-12-09T00:21:51.782Z,22.80
2022-12-09T00:24:18.271Z,25.70
2022-12-09T00:26:44.755Z,24.10
2022-12-09T00:29:12.212Z,15.80
2022-12-09T00:31:39.247Z,24.60
2022-12-09T00:34:09.953Z,27.10
2022-12-09T00:36:36.799Z,22.00
2022-12-09T00:39:04.027Z,23.10
2022-12-09T00:41:30.985Z,19.40
2022-12-09T00:43:58.001Z,27.10
2022-12-09T00:46:24.813Z,30.40
2022-12-09T00:48:51.466Z,22.10
2022-12-09T00:51:20.863Z,23.50
2022-12-09T00:53:47.447Z,25.10
2022-12-09T00:56:14.402Z,24.80
2022-12-09T00:58:41.147Z,24.20
2022-12-09T01:01:14.440Z,24.10
2022-12-09T01:06:20.528Z,24.90
2022-12-09T01:08:47.638Z,27.50
2022-12-09T01:11:23.844Z,24.00
2022-12-09T01:13:51.059Z,22.20
2022-12-09T01:18:52.286Z,24.50
2022-12-09T01:21:28.734Z,24.40
2022-12-09T01:23:55.561Z,29.40
2022-12-09T01:28:52.445Z,24.80
2022-12-09T01:31:22.051Z,26.90
2022-12-09T01:33:49.278Z,28.00
2022-12-09T01:36:18.606Z,25.70
2022-12-09T01:38:45.945Z,25.20
2022-12-09T01:41:13.792Z,22.80
2022-12-09T01:43:40.385Z,29.50
2022-12-09T01:46:16.112Z,27.30
2022-12-09T01:48:44.727Z,20.00
2022-12-09T01:51:20.610Z,23.60
2022-12-09T01:53:51.395Z,20.10
2022-12-09T01:56:22.585Z,22.10
2022-12-09T01:58:50.482Z,23.50
2022-12-09T02:01:23.417Z,29.70
2022-12-09T02:03:50.476Z,30.00
2022-12-09T02:06:26.295Z,25.90
2022-12-09T02:08:54.106Z,22.70
2022-12-09T02:11:39.493Z,26.60
2022-12-09T02:14:24.385Z,24.60
2022-12-09T02:17:00.579Z,23.00
2022-12-09T02:19:52.417Z,22.30
2022-12-09T02:22:24.705Z,24.40
2022-12-09T02:25:31.705Z,20.40
2022-12-09T02:28:13.488Z,23.60
2022-12-09T02:31:03.033Z,20.70
2022-12-09T02:33:54.364Z,24.40
2022-12-09T02:36:29.043Z,20.40
2022-12-09T02:39:02.809Z,25.00
2022-12-09T02:41:30.549Z,25.60
2022-12-09T02:44:01.220Z,25.40
2022-12-09T02:46:28.813Z,23.30
2022-12-09T02:49:05.509Z,24.50
2022-12-09T02:51:34.627Z,24.60
2022-12-09T02:54:06.831Z,25.50
2022-12-09T02:56:34.289Z,22.30
2022-12-09T02:59:01.650Z,22.20
2022-12-09T03:01:46.707Z,27.60
2022-12-09T03:06:51.599Z,24.70
2022-12-09T03:09:30.770Z,22.00
2022-12-09T03:14:37.386Z,23.20
2022-12-09T03:17:16.931Z,19.90
2022-12-09T03:19:49.947Z,25.20
2022-12-09T03:22:22.966Z,25.70
2022-12-09T03:24:53.727Z,23.90
2022-12-09T03:27:32.981Z,21.50
2022-12-09T03:30:00.444Z,24.00
2022-12-09T03:32:33.396Z,22.90
2022-12-09T03:35:08.414Z,24.50
2022-12-09T03:37:38.072Z,22.60
2022-12-09T03:40:13.614Z,24.40
2022-12-09T03:43:12.215Z,22.50
2022-12-09T03:45:40.151Z,22.10
2022-12-09T03:48:06.967Z,20.70
2022-12-09T03:50:54.730Z,21.90
2022-12-09T03:53:25.455Z,22.90
2022-12-09T03:56:13.144Z,23.20
2022-12-09T03:58:42.252Z,30.90
2022-12-09T04:01:09.637Z,22.20
2022-12-09T04:03:38.052Z,23.60
2022-12-09T04:06:05.344Z,23.20
2022-12-09T04:08:32.298Z,20.60
2022-12-09T04:11:01.596Z,21.30
2022-12-09T04:13:37.328Z,20.70
2022-12-09T04:16:04.205Z,21.70
2022-12-09T04:20:57.638Z,20.80
2022-12-09T04:23:24.486Z,23.50
2022-12-09T04:25:51.069Z,27.30
2022-12-09T04:28:17.932Z,24.80
2022-12-09T04:30:47.751Z,21.90
2022-12-09T04:33:14.647Z,28.10
2022-12-09T04:35:41.700Z,27.30
2022-12-09T04:40:41.099Z,22.40
2022-12-09T04:43:16.566Z,27.80
2022-12-09T04:45:43.451Z,23.20
2022-12-09T04:48:19.139Z,24.60
2022-12-09T04:50:46.084Z,21.40
2022-12-09T04:53:12.659Z,24.50
2022-12-09T04:55:39.101Z,21.50
2022-12-09T04:58:05.798Z,24.60
2022-12-09T05:00:41.466Z,25.80
2022-12-09T05:03:08.081Z,23.90
2022-12-09T05:05:34.932Z,22.80
2022-12-09T05:08:02.179Z,21.60
2022-12-09T05:10:36.219Z,23.50
2022-12-09T05:13:03.959Z,21.50
2022-12-09T05:15:38.299Z,23.50
2022-12-09T05:18:05.974Z,25.80
2022-12-09T05:20:32.737Z,24.00
2022-12-09T05:23:02.120Z,23.00
2022-12-09T05:27:59.537Z,23.10
2022-12-09T05:30:26.125Z,25.00
2022-12-09T05:32:53.091Z,24.70
2022-12-09T05:35:28.919Z,22.60
2022-12-09T05:37:56.029Z,29.40
2022-12-09T05:40:31.477Z,25.50
2022-12-09T05:42:57.960Z,25.80
2022-12-09T05:45:24.540Z,20.60
2022-12-09T05:47:51.336Z,22.30
2022-12-09T05:50:18.847Z,22.60
2022-12-09T05:52:46.128Z,23.30
2022-12-09T05:55:13.372Z,24.40
2022-12-09T05:57:40.343Z,29.30
2022-12-09T06:00:08.070Z,24.20
2022-12-09T06:02:34.933Z,24.60
2022-12-09T06:05:03.017Z,23.90
2022-12-09T06:07:30.385Z,27.40
2022-12-09T06:09:57.368Z,25.70
2022-12-09T06:12:24.486Z,25.00
2022-12-09T06:14:52.100Z,26.20
2022-12-09T06:17:27.846Z,26.30
2022-12-09T06:19:56.503Z,25.00
2022-12-09T06:22:24.142Z,26.90
2022-12-09T06:25:23.278Z,26.90
2022-12-09T06:27:53.349Z,26.40
2022-12-09T06:30:20.440Z,24.10
2022-12-09T06:32:47.526Z,26.30
2022-12-09T06:35:15.412Z,24.20
2022-12-09T06:37:42.489Z,29.80
2022-12-09T06:40:10.479Z,28.70
2022-12-09T06:42:37.658Z,22.60
2022-12-09T06:45:05.738Z,24.70
2022-12-09T06:47:32.963Z,27.80
2022-12-09T06:50:06.673Z,24.30
2022-12-09T06:52:35.211Z,27.10
2022-12-09T06:55:02.211Z,27.60
2022-12-09T06:57:29.415Z,25.20
2022-12-09T06:59:59.338Z,25.20
2022-12-09T07:02:52.616Z,26.60
2022-12-09T07:05:19.837Z,27.10
2022-12-09T07:07:52.166Z,29.50
2022-12-09T07:10:20.131Z,30.80
2022-12-09T07:12:47.113Z,25.00
2022-12-09T07:15:14.515Z,23.20
2022-12-09T07:17:42.180Z,23.80
2022-12-09T07:20:09.663Z,31.90
2022-12-09T07:22:42.550Z,31.60
2022-12-09T07:25:09.395Z,25.90
2022-12-09T07:27:37.511Z,25.70
2022-12-09T07:30:04.812Z,28.20
2022-12-09T07:32:32.325Z,27.30
2022-12-09T07:34:59.461Z,26.40
2022-12-09T07:37:35.532Z,26.60
2022-12-09T07:40:02.529Z,28.30
2022-12-09T07:42:29.529Z,26.90
2022-12-09T07:44:56.430Z,26.40
2022-12-09T07:47:33.372Z,27.00
2022-12-09T07:50:05.995Z,29.20
2022-12-09T07:52:33.756Z,27.70
2022-12-09T07:55:01.392Z,28.40
2022-12-09T07:57:28.510Z,33.40
2022-12-09T07:59:56.397Z,23.10
2022-12-09T08:02:23.376Z,27.70
2022-12-09T08:04:50.534Z,32.90
2022-12-09T08:07:27.368Z,25.90
2022-12-09T08:09:55.774Z,29.90
2022-12-09T08:12:23.134Z,28.60
2022-12-09T08:14:52.504Z,32.10
2022-12-09T08:17:19.970Z,36.20
2022-12-09T08:19:49.180Z,29.00
2022-12-09T08:22:16.178Z,35.20
2022-12-09T08:24:43.386Z,26.60
2022-12-09T08:27:10.571Z,37.90
2022-12-09T08:29:37.368Z,33.20
2022-12-09T08:32:04.602Z,30.40
2022-12-09T08:34:31.600Z,40.50
2022-12-09T08:37:02.049Z,39.60
2022-12-09T08:39:29.112Z,39.80
2022-12-09T08:41:55.777Z,34.30
2022-12-09T08:44:23.482Z,35.10
2022-12-09T08:46:51.890Z,37.60
2022-12-09T08:49:21.350Z,46.20
2022-12-09T08:51:50.210Z,64.80
2022-12-09T08:54:17.377Z,79.00
2022-12-09T08:56:46.769Z,81.90
2022-12-09T08:59:14.547Z,67.00
2022-12-09T09:01:41.443Z,62.30
2022-12-09T09:04:11.840Z,62.50
2022-12-09T09:06:40.525Z,44.70
2022-12-09T09:09:09.482Z,38.80
2022-12-09T09:11:37.439Z,37.40
2022-12-09T09:14:05.950Z,37.50
2022-12-09T09:16:33.834Z,33.50
2022-12-09T09:19:02.994Z,34.80
2022-12-09T09:21:29.925Z,34.10
2022-12-09T09:23:56.568Z,31.60
2022-12-09T09:26:26.009Z,30.70
2022-12-09T09:28:54.431Z,37.90
2022-12-09T09:31:23.097Z,29.60
2022-12-09T09:33:50.932Z,28.70
2022-12-09T09:36:21.280Z,26.90
2022-12-09T09:38:49.117Z,26.60
2022-12-09T09:41:38.617Z,27.50
2022-12-09T09:44:17.366Z,24.60
2022-12-09T09:46:46.948Z,34.10
2022-12-09T09:49:26.267Z,29.90
2022-12-09T09:51:54.206Z,25.10
2022-12-09T09:54:20.843Z,23.50
2022-12-09T09:56:54.326Z,23.90
2022-12-09T09:59:44.554Z,21.30
2022-12-09T10:02:11.544Z,25.80
2022-12-09T10:04:57.736Z,29.80
2022-12-09T10:07:48.398Z,33.70
2022-12-09T10:10:33.760Z,27.70
2022-12-09T10:13:18.373Z,33.20
2022-12-09T10:16:14.703Z,34.10
2022-12-09T10:18:50.761Z,45.60
2022-12-09T10:21:19.543Z,35.80
2022-12-09T10:23:46.928Z,33.50
2022-12-09T10:26:19.358Z,35.10
2022-12-09T10:28:47.714Z,34.00
2022-12-09T10:31:24.296Z,33.50
2022-12-09T10:33:51.440Z,33.00
2022-12-09T10:36:32.176Z,31.20
2022-12-09T10:39:03.061Z,32.70
2022-12-09T10:42:03.909Z,26.70
2022-12-09T10:44:31.973Z,29.30
2022-12-09T10:47:20.898Z,24.90
2022-12-09T10:49:50.874Z,28.90
2022-12-09T10:52:22.271Z,32.20
2022-12-09T10:54:50.116Z,35.60
2022-12-09T10:57:17.120Z,23.40
2022-12-09T11:02:23.867Z,22.40
2022-12-09T11:04:51.382Z,20.10
2022-12-09T11:07:23.898Z,23.60
2022-12-09T11:10:22.256Z,18.60
2022-12-09T11:13:04.425Z,18.70
2022-12-09T11:15:41.535Z,20.40
2022-12-09T11:18:25.523Z,25.10
2022-12-09T11:21:01.245Z,21.80
2022-12-09T11:23:29.038Z,21.60
2022-12-09T11:25:59.577Z,30.70
2022-12-09T11:28:35.104Z,30.50
2022-12-09T11:31:28.927Z,106.20
2022-12-09T11:34:04.389Z,225.00
2022-12-09T11:36:37.104Z,181.20
2022-12-09T11:39:19.937Z,40.20
2022-12-09T11:42:12.890Z,33.40
2022-12-09T11:44:48.148Z,31.50
2022-12-09T11:47:27.857Z,20.70
2022-12-09T11:50:11.770Z,25.60
2022-12-09T11:52:38.695Z,24.60
2022-12-09T11:55:10.433Z,27.20
2022-12-09T11:57:47.195Z,29.30
2022-12-09T12:00:26.835Z,27.20
2022-12-09T12:03:20.359Z,25.70
2022-12-09T12:05:54.368Z,21.50
2022-12-09T12:08:24.290Z,24.70
2022-12-09T12:10:59.563Z,25.30
2022-12-09T12:13:29.195Z,23.10
2022-12-09T12:16:07.970Z,28.40
2022-12-09T12:18:40.790Z,28.10
2022-12-09T12:21:29.445Z,27.30
2022-12-09T12:24:01.958Z,33.60
2022-12-09T12:26:39.340Z,26.60
2022-12-09T12:29:09.198Z,26.40
2022-12-09T12:31:47.756Z,28.70
2022-12-09T12:34:25.077Z,33.60
2022-12-09T12:37:01.330Z,23.00
2022-12-09T12:40:00.210Z,23.20
2022-12-09T12:43:03.530Z,22.70
2022-12-09T12:45:57.633Z,22.90
2022-12-09T12:48:32.968Z,22.70
2022-12-09T12:51:10.830Z,22.20
2022-12-09T12:54:15.667Z,24.10
2022-12-09T12:56:45.879Z,19.80
2022-12-09T12:59:21.866Z,19.60
2022-12-09T13:02:05.109Z,18.70
2022-12-09T13:05:06.199Z,19.60
2022-12-09T13:07:41.468Z,22.70
2022-12-09T13:10:44.341Z,17.40
2022-12-09T13:13:49.142Z,20.40
2022-12-09T13:16:18.999Z,20.80
2022-12-09T13:18:55.685Z,22.00
2022-12-09T13:21:25.161Z,26.40
2022-12-09T13:24:33.510Z,28.80
2022-12-09T13:27:39.820Z,23.40
2022-12-09T13:30:28.779Z,25.60
2022-12-09T13:33:22.471Z,24.50
2022-12-09T13:36:29.364Z,22.60
2022-12-09T13:39:26.783Z,25.60
2022-12-09T13:42:18.675Z,29.90
2022-12-09T13:44:57.901Z,24.90
2022-12-09T13:47:43.341Z,26.50
2022-12-09T13:50:48.283Z,38.20
2022-12-09T13:53:20.345Z,32.80
2022-12-09T13:56:10.463Z,31.00
2022-12-09T13:59:16.222Z,29.30
2022-12-09T14:04:52.441Z,34.80
2022-12-09T14:07:58.821Z,32.50
2022-12-09T14:10:42.626Z,29.80
2022-12-09T14:13:35.132Z,26.60
2022-12-09T14:16:23.822Z,26.40
2022-12-09T14:19:06.321Z,27.10
2022-12-09T14:21:55.059Z,24.40
2022-12-09T14:24:31.027Z,23.20
2022-12-09T14:27:01.228Z,27.50
2022-12-09T14:30:20.704Z,25.90
2022-12-09T14:33:41.611Z,30.10
2022-12-09T14:36:18.824Z,28.30
2022-12-09T14:39:31.928Z,29.40
2022-12-09T15:19:59.698Z,39.30
2022-12-09T15:22:31.648Z,34.80
2022-12-09T16:21:43.012Z,41.40
2022-12-09T16:24:11.804Z,47.40
2022-12-09T16:26:43.062Z,40.40
2022-12-09T16:29:28.831Z,41.30
2022-12-09T16:32:34.089Z,51.30
2022-12-09T16:35:11.357Z,48.70
2022-12-09T16:37:42.339Z,44.80
2022-12-09T16:40:21.819Z,47.30
2022-12-09T16:42:50.208Z,50.90
2022-12-09T16:45:33.460Z,43.90
2022-12-09T16:48:00.649Z,52.90
2022-12-09T16:52:55.462Z,50.10
2022-12-09T16:55:24.599Z,46.70
2022-12-09T16:57:51.888Z,48.40
2022-12-09T17:00:18.636Z,46.60
2022-12-09T17:02:54.799Z,45.30
2022-12-09T17:05:22.143Z,58.90
2022-12-09T17:07:48.705Z,54.20
2022-12-09T17:10:15.840Z,46.70
2022-12-09T17:12:43.738Z,43.80
2022-12-09T17:15:18.409Z,52.60
2022-12-09T17:17:48.695Z,50.70
2022-12-09T17:20:16.338Z,53.60
2022-12-09T17:22:43.732Z,51.60
2022-12-09T17:25:10.470Z,50.30
2022-12-09T17:27:43.157Z,62.40
2022-12-09T17:30:10.330Z,46.50
2022-12-09T17:32:37.590Z,48.40
2022-12-09T17:35:15.453Z,58.30
2022-12-09T17:37:42.494Z,52.20
2022-12-09T17:42:44.939Z,46.40
2022-12-09T17:45:11.466Z,51.10
2022-12-09T17:47:38.642Z,53.20
2022-12-09T17:50:14.108Z,48.00
2022-12-09T17:52:41.618Z,56.50
2022-12-09T17:55:16.927Z,50.30
2022-12-09T17:57:43.554Z,52.00
2022-12-09T18:00:10.722Z,49.80
2022-12-09T18:02:38.225Z,57.40
2022-12-09T18:05:11.036Z,79.50
2022-12-09T18:07:38.072Z,95.10
2022-12-09T18:10:05.431Z,95.30
2022-12-09T18:12:31.874Z,102.80
2022-12-09T18:15:04.856Z,102.60
2022-12-09T18:17:33.582Z,99.70
2022-12-09T18:20:00.371Z,104.40
2022-12-09T18:22:27.114Z,110.30
2022-12-09T18:25:02.608Z,105.40
2022-12-09T18:27:29.254Z,85.40
2022-12-09T18:30:05.444Z,90.70
2022-12-09T18:32:36.040Z,71.60
2022-12-09T18:35:03.670Z,78.40
2022-12-09T18:37:30.177Z,65.80
2022-12-09T18:39:57.087Z,58.70
2022-12-09T18:42:23.546Z,50.70
2022-12-09T18:44:49.946Z,54.80
2022-12-09T18:47:16.549Z,51.90
2022-12-09T18:49:43.026Z,57.80
2022-12-09T18:52:09.578Z,57.30
2022-12-09T18:54:42.207Z,58.60
2022-12-09T18:57:09.077Z,61.20
2022-12-09T18:59:35.680Z,61.40
2022-12-09T19:02:02.221Z,54.70
2022-12-09T19:04:35.048Z,77.00
2022-12-09T19:07:01.777Z,60.70
2022-12-09T19:09:39.466Z,56.00
2022-12-09T19:12:44.757Z,58.20
2022-12-09T19:14:54.931Z,54.80
2022-12-09T19:17:21.905Z,59.10
2022-12-09T19:19:48.962Z,59.30
2022-12-09T19:22:15.602Z,62.30
2022-12-09T19:24:43.299Z,60.30
2022-12-09T19:27:10.147Z,56.80
2022-12-09T19:29:37.432Z,61.00
2022-12-09T19:32:07.582Z,64.60
2022-12-09T19:34:40.710Z,65.80
2022-12-09T19:37:07.401Z,58.30
2022-12-09T19:39:34.093Z,57.70
2022-12-09T19:42:01.209Z,58.40
2022-12-09T19:47:15.108Z,63.60
2022-12-09T19:49:43.759Z,60.30
2022-12-09T19:52:11.810Z,65.00
2022-12-09T19:54:38.790Z,67.30
2022-12-09T19:57:05.902Z,67.00
2022-12-09T19:59:32.839Z,72.30
2022-12-09T20:02:11.391Z,72.90
2022-12-09T20:04:48.698Z,60.40
2022-12-09T20:07:16.300Z,65.30
2022-12-09T20:09:42.969Z,66.30
2022-12-09T20:12:09.582Z,67.10
2022-12-09T20:14:36.164Z,72.50
2022-12-09T20:17:02.648Z,75.30
2022-12-09T20:19:30.859Z,70.70
2022-12-09T20:21:57.602Z,71.80
2022-12-09T20:24:24.110Z,72.00
2022-12-09T20:26:50.541Z,79.30
2022-12-09T20:29:17.112Z,83.40
2022-12-09T20:31:43.741Z,78.40
2022-12-09T20:34:15.353Z,68.70
2022-12-09T20:36:43.836Z,73.70
2022-12-09T20:39:14.608Z,74.80
2022-12-09T20:41:41.738Z,73.50
2022-12-09T20:44:09.295Z,80.20
2022-12-09T20:46:35.921Z,71.10
2022-12-09T20:49:02.669Z,72.00
2022-12-09T20:51:31.831Z,73.70
2022-12-09T20:53:59.443Z,85.70
2022-12-09T20:56:27.678Z,84.70
2022-12-09T20:58:55.244Z,81.20
2022-12-09T21:11:00.028Z,73.60
2022-12-09T21:13:26.581Z,85.40
2022-12-09T21:15:53.825Z,73.10
2022-12-09T21:18:20.429Z,76.00
2022-12-09T21:20:47.038Z,73.60
2022-12-09T21:23:33.300Z,91.30
2022-12-09T21:26:12.425Z,90.10
2022-12-09T21:28:39.950Z,85.40
2022-12-09T21:31:11.073Z,75.10
2022-12-09T21:33:38.630Z,77.20
2022-12-09T21:36:06.933Z,81.10
2022-12-09T21:38:34.622Z,75.20
2022-12-09T21:41:04.956Z,90.40
2022-12-09T21:43:32.875Z,76.10
2022-12-09T21:46:07.348Z,78.60
2022-12-09T21:48:34.607Z,78.20
2022-12-09T21:51:01.795Z,93.70
2022-12-09T21:53:29.156Z,96.40
2022-12-09T21:56:07.857Z,90.70
2022-12-09T21:58:34.985Z,75.60
2022-12-09T22:01:08.996Z,89.30
2022-12-09T22:03:35.685Z,84.10
2022-12-09T22:06:02.284Z,82.10
2022-12-09T22:08:29.248Z,83.00
2022-12-09T22:13:25.717Z,82.80
2022-12-09T22:15:52.765Z,76.50
2022-12-09T22:18:19.731Z,99.30
2022-12-09T22:21:16.058Z,91.30
2022-12-09T22:23:33.584Z,84.80
2022-12-09T22:28:29.534Z,97.10
2022-12-09T22:30:56.709Z,81.20
2022-12-09T22:33:23.338Z,83.40
2022-12-09T22:35:49.888Z,88.90
2022-12-09T22:38:17.007Z,79.00
2022-12-09T22:40:43.475Z,83.60
2022-12-09T22:43:18.978Z,80.60
2022-12-09T22:45:45.994Z,91.80
2022-12-09T22:48:21.930Z,86.30
2022-12-09T22:50:49.727Z,84.40
2022-12-09T23:19:14.972Z,81.10
2022-12-09T23:21:42.627Z,87.10
2022-12-09T23:24:13.999Z,90.10
2022-12-09T23:26:41.833Z,87.60
2022-12-09T23:29:15.272Z,81.00
2022-12-09T23:31:42.333Z,83.40
2022-12-09T23:36:38.247Z,82.20
2022-12-09T23:39:14.138Z,91.50
2022-12-09T23:41:41.825Z,79.60
2022-12-09T23:44:16.382Z,100.20
2022-12-09T23:46:43.403Z,94.10
2022-12-09T23:49:09.874Z,86.70
2022-12-09T23:51:39.206Z,88.60
2022-12-09T23:54:07.453Z,89.40
2022-12-09T23:56:38.330Z,81.20
2022-12-09T23:59:08.562Z,92.70
